createdAt,value
2018-04-12T00:00:19.555Z,0
2018-04-12T00:01:00.066Z,0
2018-04-12T00:01:40.507Z,0
2018-04-12T00:02:21.031Z,0
2018-04-12T00:03:01.500Z,0
2018-04-12T00:03:42.008Z,0
2018-04-12T00:04:22.513Z,0
2018-04-12T00:05:03.038Z,0
2018-04-12T00:05:43.553Z,0
2018-04-12T00:06:24.076Z,0
2018-04-12T00:07:04.597Z,0
2018-04-12T00:07:45.121Z,0
2018-04-12T00:08:25.631Z,0
2018-04-12T00:09:06.144Z,0
2018-04-12T00:09:46.666Z,0
2018-04-12T00:10:27.181Z,0
2018-04-12T00:11:07.706Z,0
2018-04-12T00:11:48.211Z,0
2018-04-12T00:12:28.730Z,0
2018-04-12T00:13:09.244Z,0
2018-04-12T00:13:49.758Z,0
2018-04-12T00:14:30.273Z,0
2018-04-12T00:15:10.777Z,0
2018-04-12T00:15:51.299Z,0
2018-04-12T00:16:31.817Z,0
2018-04-12T00:17:12.328Z,0
2018-04-12T00:17:52.838Z,0
2018-04-12T00:18:33.356Z,0
2018-04-12T00:19:13.887Z,0
2018-04-12T00:19:54.404Z,0
2018-04-12T00:20:34.949Z,0
2018-04-12T00:21:15.455Z,0
2018-04-12T00:21:55.987Z,0
2018-04-12T00:22:36.517Z,0
2018-04-12T00:23:17.094Z,0
2018-04-12T00:23:57.602Z,0
2018-04-12T00:24:38.119Z,0
2018-04-12T00:25:18.643Z,0
2018-04-12T00:25:59.162Z,0
2018-04-12T00:26:39.676Z,0
2018-04-12T00:27:20.206Z,0
2018-04-12T00:28:00.728Z,0
2018-04-12T00:28:41.262Z,0
2018-04-12T00:29:21.764Z,0
2018-04-12T00:30:02.322Z,0
2018-04-12T00:30:42.831Z,0
2018-04-12T00:31:23.368Z,0
2018-04-12T00:32:03.889Z,0
2018-04-12T00:32:44.403Z,0
2018-04-12T00:33:24.924Z,0
2018-04-12T00:34:05.444Z,0
2018-04-12T00:34:45.965Z,0
2018-04-12T00:35:26.477Z,0
2018-04-12T00:36:06.993Z,0
2018-04-12T00:36:47.508Z,0
2018-04-12T00:37:28.032Z,0
2018-04-12T00:38:08.542Z,0
2018-04-12T00:38:49.092Z,0
2018-04-12T00:39:29.566Z,0
2018-04-12T00:40:10.081Z,0
2018-04-12T00:40:50.600Z,0
2018-04-12T00:41:31.121Z,0
2018-04-12T00:42:11.641Z,0
2018-04-12T00:42:52.197Z,0
2018-04-12T00:43:32.709Z,0
2018-04-12T00:44:13.227Z,0
2018-04-12T00:44:53.753Z,0
2018-04-12T00:45:34.268Z,0
2018-04-12T00:46:14.791Z,0
2018-04-12T00:46:55.315Z,0
2018-04-12T00:47:35.831Z,0
2018-04-12T00:48:16.344Z,0
2018-04-12T00:48:56.869Z,0
2018-04-12T00:49:37.384Z,0
2018-04-12T00:50:17.899Z,0
2018-04-12T00:50:58.407Z,0
2018-04-12T00:51:38.915Z,0
2018-04-12T00:52:19.432Z,0
2018-04-12T00:52:59.942Z,0
2018-04-12T00:53:40.458Z,0
2018-04-12T00:54:20.974Z,0
2018-04-12T00:55:01.496Z,0
2018-04-12T00:55:42.008Z,0
2018-04-12T00:56:22.524Z,0
2018-04-12T00:57:03.043Z,0
2018-04-12T00:57:43.550Z,0
2018-04-12T00:58:24.069Z,0
2018-04-12T00:59:04.579Z,0
2018-04-12T00:59:45.109Z,0
2018-04-12T01:00:25.615Z,0
2018-04-12T01:01:06.116Z,0
2018-04-12T01:01:46.652Z,0
2018-04-12T01:02:27.135Z,0
2018-04-12T01:03:07.661Z,0
2018-04-12T01:03:48.179Z,0
2018-04-12T01:04:28.740Z,0
2018-04-12T01:05:09.249Z,0
2018-04-12T01:05:49.766Z,0
2018-04-12T01:06:30.284Z,0
2018-04-12T01:07:10.803Z,0
2018-04-12T01:07:51.324Z,0
2018-04-12T01:08:31.836Z,0
2018-04-12T01:09:12.355Z,0
2018-04-12T01:09:52.889Z,0
2018-04-12T01:10:33.413Z,0
2018-04-12T01:11:13.923Z,0
2018-04-12T01:11:54.433Z,0
2018-04-12T01:12:34.957Z,0
2018-04-12T01:13:15.475Z,0
2018-04-12T01:13:55.986Z,0
2018-04-12T01:14:36.507Z,0
2018-04-12T01:15:17.021Z,0
2018-04-12T01:15:57.534Z,0
2018-04-12T01:16:38.052Z,0
2018-04-12T01:17:18.576Z,0
2018-04-12T01:17:59.084Z,0
2018-04-12T01:18:39.593Z,0
2018-04-12T01:19:20.118Z,0
2018-04-12T01:20:00.632Z,0
2018-04-12T01:20:41.149Z,0
2018-04-12T01:21:21.664Z,0
2018-04-12T01:22:02.179Z,0
2018-04-12T01:22:42.701Z,0
2018-04-12T01:23:23.221Z,0
2018-04-12T01:24:03.744Z,0
2018-04-12T01:24:44.260Z,0
2018-04-12T01:25:24.770Z,0
2018-04-12T01:26:05.277Z,0
2018-04-12T01:26:45.786Z,0
2018-04-12T01:27:26.301Z,0
2018-04-12T01:28:06.821Z,0
2018-04-12T01:28:47.325Z,0
2018-04-12T01:29:27.850Z,0
2018-04-12T01:30:08.377Z,0
2018-04-12T01:30:48.895Z,0
2018-04-12T01:31:29.417Z,0
2018-04-12T01:32:09.933Z,0
2018-04-12T01:32:50.459Z,0
2018-04-12T01:33:30.977Z,0
2018-04-12T01:34:11.481Z,0
2018-04-12T01:34:51.996Z,0
2018-04-12T01:35:32.510Z,0
2018-04-12T01:36:13.027Z,0
2018-04-12T01:36:53.548Z,0
2018-04-12T01:37:34.062Z,0
2018-04-12T01:38:14.574Z,0
2018-04-12T01:38:55.090Z,0
2018-04-12T01:39:35.606Z,0
2018-04-12T01:40:16.144Z,0
2018-04-12T01:40:56.662Z,0
2018-04-12T01:41:37.169Z,0
2018-04-12T01:42:17.684Z,0
2018-04-12T01:42:58.200Z,0
2018-04-12T01:43:38.720Z,0
2018-04-12T01:44:19.234Z,0
2018-04-12T01:44:59.751Z,0
2018-04-12T01:45:40.275Z,0
2018-04-12T01:46:20.777Z,0
2018-04-12T01:47:01.287Z,0
2018-04-12T01:47:41.817Z,0
2018-04-12T01:48:22.337Z,0
2018-04-12T01:49:02.948Z,0
2018-04-12T01:49:43.366Z,0
2018-04-12T01:50:23.889Z,0
2018-04-12T01:51:04.404Z,0
2018-04-12T01:51:44.918Z,0
2018-04-12T01:52:25.443Z,0
2018-04-12T01:53:05.965Z,0
2018-04-12T01:53:46.477Z,0
2018-04-12T01:54:26.991Z,0
2018-04-12T01:55:07.521Z,0
2018-04-12T01:55:48.034Z,0
2018-04-12T01:56:28.552Z,0
2018-04-12T01:57:09.072Z,0
2018-04-12T01:57:49.593Z,0
2018-04-12T01:58:30.099Z,0
2018-04-12T01:59:10.614Z,0
2018-04-12T01:59:51.130Z,0
2018-04-12T02:00:31.646Z,0
2018-04-12T02:01:12.177Z,0
2018-04-12T02:01:52.699Z,0
2018-04-12T02:02:33.218Z,0
2018-04-12T02:03:13.731Z,0
2018-04-12T02:03:54.249Z,0
2018-04-12T02:04:34.771Z,0
2018-04-12T02:05:15.285Z,0
2018-04-12T02:05:55.807Z,0
2018-04-12T02:06:36.338Z,0
2018-04-12T02:07:16.835Z,0
2018-04-12T02:07:57.346Z,0
2018-04-12T02:08:37.867Z,0
2018-04-12T02:09:18.389Z,0
2018-04-12T02:09:58.920Z,0
2018-04-12T02:10:39.443Z,0
2018-04-12T02:11:19.957Z,0
2018-04-12T02:12:00.487Z,0
2018-04-12T02:12:41.013Z,0
2018-04-12T02:13:21.522Z,0
2018-04-12T02:14:02.037Z,0
2018-04-12T02:14:42.558Z,0
2018-04-12T02:15:23.070Z,0
2018-04-12T02:16:03.605Z,0
2018-04-12T02:16:44.127Z,0
2018-04-12T02:17:24.647Z,0
2018-04-12T02:18:05.178Z,0
2018-04-12T02:18:45.692Z,0
2018-04-12T02:19:26.232Z,0
2018-04-12T02:20:06.752Z,0
2018-04-12T02:20:47.265Z,0
2018-04-12T02:21:27.792Z,0
2018-04-12T02:22:08.312Z,0
2018-04-12T02:22:48.861Z,0
2018-04-12T02:23:29.361Z,0
2018-04-12T02:24:09.882Z,0
2018-04-12T02:24:50.396Z,0
2018-04-12T02:25:30.923Z,0
2018-04-12T02:26:11.451Z,0
2018-04-12T02:26:51.964Z,0
2018-04-12T02:27:32.471Z,0
2018-04-12T02:28:12.982Z,0
2018-04-12T02:28:53.509Z,0
2018-04-12T02:29:34.016Z,0
2018-04-12T02:30:14.535Z,0
2018-04-12T02:30:55.054Z,0
2018-04-12T02:31:35.564Z,0
2018-04-12T02:32:16.088Z,0
2018-04-12T02:32:56.601Z,0
2018-04-12T02:33:37.123Z,0
2018-04-12T02:34:17.635Z,0
2018-04-12T02:34:58.186Z,0
2018-04-12T02:35:38.660Z,0
2018-04-12T02:36:19.183Z,0
2018-04-12T02:36:59.709Z,0
2018-04-12T02:37:40.231Z,0
2018-04-12T02:38:20.755Z,0
2018-04-12T02:39:01.265Z,0
2018-04-12T02:39:41.781Z,0
2018-04-12T02:40:22.297Z,0
2018-04-12T02:41:02.815Z,0
2018-04-12T02:41:43.374Z,0
2018-04-12T02:42:23.862Z,0
2018-04-12T02:43:04.388Z,0
2018-04-12T02:43:44.907Z,0
2018-04-12T02:44:25.437Z,0
2018-04-12T02:45:05.956Z,0
2018-04-12T02:45:46.474Z,0
2018-04-12T02:46:26.990Z,0
2018-04-12T02:47:07.497Z,0
2018-04-12T02:47:48.013Z,0
2018-04-12T02:48:28.525Z,0
2018-04-12T02:49:09.060Z,0
2018-04-12T02:49:49.568Z,0
2018-04-12T02:50:30.082Z,0
2018-04-12T02:51:10.594Z,0
2018-04-12T02:51:51.117Z,0
2018-04-12T02:52:31.642Z,0
2018-04-12T02:53:12.154Z,0
2018-04-12T02:53:52.664Z,0
2018-04-12T02:54:33.184Z,0
2018-04-12T02:55:13.688Z,0
2018-04-12T02:55:54.199Z,0
2018-04-12T02:56:34.730Z,0
2018-04-12T02:57:15.254Z,0
2018-04-12T02:57:55.775Z,0
2018-04-12T02:58:36.281Z,0
2018-04-12T02:59:16.800Z,0
2018-04-12T02:59:57.315Z,0
2018-04-12T03:02:27.613Z,0
2018-04-12T03:03:08.140Z,0
2018-04-12T03:03:48.658Z,0
2018-04-12T03:04:29.162Z,0
2018-04-12T03:05:09.676Z,0
2018-04-12T03:05:50.191Z,0
2018-04-12T03:06:30.700Z,0
2018-04-12T03:07:11.225Z,0
2018-04-12T03:07:51.748Z,0
2018-04-12T03:08:32.252Z,0
2018-04-12T03:09:12.779Z,0
2018-04-12T03:09:53.298Z,0
2018-04-12T03:10:33.807Z,0
2018-04-12T03:11:14.318Z,0
2018-04-12T03:11:54.837Z,0
2018-04-12T03:12:35.370Z,0
2018-04-12T03:13:15.914Z,0
2018-04-12T03:13:56.427Z,0
2018-04-12T03:14:36.951Z,0
2018-04-12T03:15:17.470Z,0
2018-04-12T03:15:57.977Z,0
2018-04-12T03:16:38.520Z,0
2018-04-12T03:17:19.028Z,0
2018-04-12T03:17:59.551Z,0
2018-04-12T03:18:40.073Z,0
2018-04-12T03:19:20.595Z,0
2018-04-12T03:20:01.098Z,0
2018-04-12T03:20:41.614Z,0
2018-04-12T03:21:22.135Z,0
2018-04-12T03:22:02.648Z,0
2018-04-12T03:22:43.163Z,0
2018-04-12T03:23:23.694Z,0
2018-04-12T03:24:04.199Z,0
2018-04-12T03:24:44.727Z,0
2018-04-12T03:25:25.231Z,0
2018-04-12T03:26:05.745Z,0
2018-04-12T03:26:46.284Z,0
2018-04-12T03:27:26.803Z,0
2018-04-12T03:28:07.315Z,0
2018-04-12T03:28:47.837Z,0
2018-04-12T03:29:28.348Z,0
2018-04-12T03:30:08.864Z,0
2018-04-12T03:30:49.377Z,0
2018-04-12T03:31:29.894Z,0
2018-04-12T03:32:10.398Z,0
2018-04-12T03:32:50.918Z,0
2018-04-12T03:33:31.426Z,0
2018-04-12T03:34:11.950Z,0
2018-04-12T03:34:52.475Z,0
2018-04-12T03:35:32.991Z,0
2018-04-12T03:36:13.554Z,0
2018-04-12T03:36:54.074Z,0
2018-04-12T03:37:34.595Z,0
2018-04-12T03:38:15.106Z,0
2018-04-12T03:38:55.648Z,0
2018-04-12T03:39:36.163Z,0
2018-04-12T03:40:16.673Z,0
2018-04-12T03:40:57.189Z,0
2018-04-12T03:41:37.709Z,0
2018-04-12T03:42:18.239Z,0
2018-04-12T03:42:58.765Z,0
2018-04-12T03:43:39.271Z,0
2018-04-12T03:44:19.872Z,0
2018-04-12T03:45:00.411Z,0
2018-04-12T03:45:40.955Z,0
2018-04-12T03:46:21.462Z,0
2018-04-12T03:47:01.977Z,0
2018-04-12T03:47:42.488Z,0
2018-04-12T03:48:23.007Z,0
2018-04-12T03:50:36.324Z,0
2018-04-12T03:51:16.807Z,0
2018-04-12T03:51:57.325Z,0
2018-04-12T03:52:37.834Z,0
2018-04-12T03:53:18.352Z,0
2018-04-12T03:53:58.879Z,0
2018-04-12T03:54:39.405Z,0
2018-04-12T03:55:19.914Z,0
2018-04-12T03:56:00.461Z,0
2018-04-12T03:56:40.993Z,0
2018-04-12T03:57:21.499Z,0
2018-04-12T03:58:02.014Z,0
2018-04-12T03:58:42.540Z,0
2018-04-12T03:59:23.066Z,0
2018-04-12T04:00:03.586Z,0
2018-04-12T04:00:44.071Z,0
2018-04-12T04:01:24.592Z,0
2018-04-12T04:02:05.100Z,0
2018-04-12T04:02:45.616Z,0
2018-04-12T04:03:26.153Z,0
2018-04-12T04:04:06.669Z,0
2018-04-12T04:04:47.179Z,0
2018-04-12T04:05:27.694Z,0
2018-04-12T04:06:08.223Z,0
2018-04-12T04:06:48.758Z,0
2018-04-12T04:07:29.258Z,0
2018-04-12T04:08:09.824Z,0
2018-04-12T04:08:50.366Z,0
2018-04-12T04:09:30.899Z,0
2018-04-12T04:10:11.429Z,0
2018-04-12T04:10:51.923Z,0
2018-04-12T04:11:32.453Z,0
2018-04-12T04:12:12.932Z,0
2018-04-12T04:12:53.475Z,0
2018-04-12T04:13:33.995Z,0
2018-04-12T04:14:14.506Z,0
2018-04-12T04:14:55.010Z,4
2018-04-12T04:15:35.554Z,4
2018-04-12T04:16:16.161Z,4
2018-04-12T04:16:56.687Z,0
2018-04-12T04:17:37.217Z,4
2018-04-12T04:18:17.726Z,4
2018-04-12T04:18:58.250Z,4
2018-04-12T04:19:38.841Z,4
2018-04-12T04:20:19.371Z,4
2018-04-12T04:21:01.856Z,8
2018-04-12T04:21:42.354Z,4
2018-04-12T04:22:22.866Z,8
2018-04-12T04:23:03.384Z,8
2018-04-12T04:23:43.912Z,8
2018-04-12T04:24:24.428Z,8
2018-04-12T04:25:04.945Z,8
2018-04-12T04:25:45.465Z,12
2018-04-12T04:26:26.022Z,12
2018-04-12T04:27:06.667Z,16
2018-04-12T04:27:47.198Z,16
2018-04-12T04:28:27.727Z,16
2018-04-12T04:29:08.243Z,20
2018-04-12T04:29:48.771Z,20
2018-04-12T04:30:29.294Z,24
2018-04-12T04:31:09.808Z,24
2018-04-12T04:31:50.388Z,28
2018-04-12T04:32:30.878Z,32
2018-04-12T04:33:11.403Z,32
2018-04-12T04:33:51.933Z,36
2018-04-12T04:34:32.448Z,40
2018-04-12T04:35:12.967Z,40
2018-04-12T04:35:53.475Z,44
2018-04-12T04:36:33.993Z,48
2018-04-12T04:37:14.515Z,48
2018-04-12T04:37:55.014Z,52
2018-04-12T04:38:35.528Z,56
2018-04-12T04:39:16.039Z,64
2018-04-12T04:39:56.611Z,64
2018-04-12T04:40:37.080Z,64
2018-04-12T04:41:17.596Z,72
2018-04-12T04:41:58.114Z,76
2018-04-12T04:42:38.632Z,84
2018-04-12T04:43:19.160Z,88
2018-04-12T04:43:59.670Z,92
2018-04-12T04:44:40.246Z,96
2018-04-12T04:45:20.763Z,108
2018-04-12T04:46:02.311Z,112
2018-04-12T04:46:42.877Z,124
2018-04-12T04:47:23.380Z,128
2018-04-12T04:48:03.905Z,140
2018-04-12T04:48:44.413Z,152
2018-04-12T04:49:24.936Z,164
2018-04-12T04:50:05.463Z,176
2018-04-12T04:50:45.976Z,188
2018-04-12T04:51:26.476Z,200
2018-04-12T04:52:06.992Z,220
2018-04-12T04:52:47.519Z,236
2018-04-12T04:53:28.023Z,252
2018-04-12T04:54:08.525Z,272
2018-04-12T04:54:49.038Z,292
2018-04-12T04:55:29.553Z,316
2018-04-12T04:56:10.060Z,340
2018-04-12T04:56:50.561Z,360
2018-04-12T04:57:31.096Z,388
2018-04-12T04:58:11.620Z,412
2018-04-12T04:58:52.145Z,440
2018-04-12T04:59:32.651Z,464
2018-04-12T05:00:13.188Z,496
2018-04-12T05:00:53.737Z,528
2018-04-12T05:01:34.241Z,560
2018-04-12T05:02:14.767Z,596
2018-04-12T05:02:55.260Z,628
2018-04-12T05:03:35.779Z,652
2018-04-12T05:04:16.323Z,676
2018-04-12T05:04:56.851Z,700
2018-04-12T05:05:37.373Z,720
2018-04-12T05:06:17.894Z,748
2018-04-12T05:06:58.431Z,772
2018-04-12T05:07:38.936Z,796
2018-04-12T05:08:19.474Z,820
2018-04-12T05:09:00.000Z,840
2018-04-12T05:09:40.518Z,864
2018-04-12T05:10:21.031Z,884
2018-04-12T05:11:01.547Z,908
2018-04-12T05:11:42.051Z,936
2018-04-12T05:12:22.567Z,960
2018-04-12T05:13:03.091Z,992
2018-04-12T05:13:43.616Z,1028
2018-04-12T05:14:24.149Z,1064
2018-04-12T05:15:04.664Z,1100
2018-04-12T05:15:45.385Z,1136
2018-04-12T05:16:25.695Z,1168
2018-04-12T05:17:06.203Z,1188
2018-04-12T05:17:46.709Z,1200
2018-04-12T05:18:27.228Z,1224
2018-04-12T05:19:07.731Z,1256
2018-04-12T05:19:48.257Z,1296
2018-04-12T05:20:28.763Z,1360
2018-04-12T05:21:09.278Z,1456
2018-04-12T05:21:49.797Z,1520
2018-04-12T05:22:30.336Z,1532
2018-04-12T05:23:10.850Z,1556
2018-04-12T05:23:51.393Z,1524
2018-04-12T05:24:31.881Z,1508
2018-04-12T05:25:12.399Z,1516
2018-04-12T05:25:52.919Z,1536
2018-04-12T05:26:33.437Z,1500
2018-04-12T05:27:13.964Z,1444
2018-04-12T05:27:54.486Z,1420
2018-04-12T05:28:35.008Z,1432
2018-04-12T05:29:15.558Z,1460
2018-04-12T05:29:56.051Z,1508
2018-04-12T05:30:36.560Z,1572
2018-04-12T05:31:17.071Z,1652
2018-04-12T05:31:57.588Z,1744
2018-04-12T05:32:38.107Z,1828
2018-04-12T05:33:18.618Z,1880
2018-04-12T05:33:59.132Z,1900
2018-04-12T05:34:39.642Z,1964
2018-04-12T05:35:20.156Z,2164
2018-04-12T05:36:00.775Z,2400
2018-04-12T05:36:41.301Z,2552
2018-04-12T05:37:24.455Z,2660
2018-04-12T05:38:06.990Z,2720
2018-04-12T05:38:55.874Z,2708
2018-04-12T05:39:38.578Z,2716
2018-04-12T05:40:22.373Z,2792
2018-04-12T05:41:05.560Z,2900
2018-04-12T05:41:58.930Z,3000
2018-04-12T05:42:42.320Z,3056
2018-04-12T05:43:25.575Z,3076
2018-04-12T05:44:11.057Z,3084
2018-04-12T05:44:52.940Z,3040
2018-04-12T05:45:37.901Z,3020
2018-04-12T05:46:22.620Z,2916
2018-04-12T05:47:05.710Z,2860
2018-04-12T05:47:48.243Z,2820
2018-04-12T05:48:28.957Z,2776
2018-04-12T05:49:09.590Z,2756
2018-04-12T05:49:52.284Z,2760
2018-04-12T05:50:35.974Z,2736
2018-04-12T05:51:19.360Z,2696
2018-04-12T05:52:03.957Z,2644
2018-04-12T05:52:48.696Z,2600
2018-04-12T05:53:31.076Z,2560
2018-04-12T05:54:13.231Z,2540
2018-04-12T05:54:55.227Z,2500
2018-04-12T05:55:37.453Z,2512
2018-04-12T05:56:19.954Z,2540
2018-04-12T05:57:05.326Z,2560
2018-04-12T05:57:47.856Z,2636
2018-04-12T05:58:29.240Z,2736
2018-04-12T05:59:09.732Z,2892
2018-04-12T05:59:50.240Z,2996
2018-04-12T06:00:30.912Z,3176
2018-04-12T06:01:11.478Z,3304
2018-04-12T06:01:52.032Z,3380
2018-04-12T06:02:32.767Z,3432
2018-04-12T06:03:13.588Z,3556
2018-04-12T06:03:54.082Z,3676
2018-04-12T06:04:34.709Z,3852
2018-04-12T06:05:15.386Z,3928
2018-04-12T06:05:56.317Z,3988
2018-04-12T06:06:37.146Z,4024
2018-04-12T06:07:17.781Z,4016
2018-04-12T06:07:58.402Z,3996
2018-04-12T06:08:38.975Z,3976
2018-04-12T06:09:19.702Z,4028
2018-04-12T06:10:00.264Z,4096
2018-04-12T06:10:41.239Z,4124
2018-04-12T06:11:21.811Z,4124
2018-04-12T06:12:03.957Z,4104
2018-04-12T06:14:41.827Z,4100
2018-04-12T06:15:23.932Z,4044
2018-04-12T06:16:06.841Z,4048
2018-04-12T06:16:49.493Z,4008
2018-04-12T06:17:31.482Z,4020
2018-04-12T06:18:14.164Z,4120
2018-04-12T06:18:55.482Z,4188
2018-04-12T06:19:38.636Z,4148
2018-04-12T06:22:05.066Z,3940
2018-04-12T06:22:46.556Z,3948
2018-04-12T06:23:32.801Z,3936
2018-04-12T06:24:16.247Z,3908
2018-04-12T06:24:58.574Z,3888
2018-04-12T06:25:41.472Z,3872
2018-04-12T06:26:23.529Z,3852
2018-04-12T06:27:04.278Z,3828
2018-04-12T06:27:47.850Z,3800
2018-04-12T06:28:28.470Z,3780
2018-04-12T06:29:10.683Z,3788
2018-04-12T06:29:51.808Z,3816
2018-04-12T06:31:16.017Z,3856
2018-04-12T06:31:58.282Z,3904
2018-04-12T06:32:38.736Z,3988
2018-04-12T06:33:19.257Z,4052
2018-04-12T06:33:59.879Z,4104
2018-04-12T06:34:40.352Z,4140
2018-04-12T06:35:20.936Z,4192
2018-04-12T06:36:01.631Z,4196
2018-04-12T06:36:42.137Z,4196
2018-04-12T06:37:22.758Z,4188
2018-04-12T06:38:03.299Z,4144
2018-04-12T06:38:43.897Z,4116
2018-04-12T06:39:24.400Z,4108
2018-04-12T06:40:04.935Z,4108
2018-04-12T06:40:45.421Z,4084
2018-04-12T06:41:25.943Z,4072
2018-04-12T06:42:08.107Z,4068
2018-04-12T06:42:48.624Z,4084
2018-04-12T06:44:53.554Z,4424
2018-04-12T06:45:34.090Z,4516
2018-04-12T06:46:14.624Z,4536
2018-04-12T06:46:55.163Z,4500
2018-04-12T06:47:35.681Z,4432
2018-04-12T06:48:16.277Z,4204
2018-04-12T06:48:56.760Z,4056
2018-04-12T06:49:37.279Z,3996
2018-04-12T06:50:17.802Z,4012
2018-04-12T06:50:58.316Z,4036
2018-04-12T06:51:38.839Z,4060
2018-04-12T06:52:19.408Z,4076
2018-04-12T06:52:59.890Z,4128
2018-04-12T06:53:40.628Z,4176
2018-04-12T06:54:21.167Z,4196
2018-04-12T06:55:01.808Z,4200
2018-04-12T06:55:42.330Z,4208
2018-04-12T06:56:22.865Z,4220
2018-04-12T06:57:03.415Z,4224
2018-04-12T06:57:43.918Z,4244
2018-04-12T06:58:24.448Z,4268
2018-04-12T06:59:04.967Z,4296
2018-04-12T06:59:45.489Z,4380
2018-04-12T07:00:25.990Z,4788
2018-04-12T07:01:06.513Z,5176
2018-04-12T07:01:47.137Z,4960
2018-04-12T07:02:27.552Z,4716
2018-04-12T07:03:08.312Z,4768
2018-04-12T07:03:48.875Z,5196
2018-04-12T07:04:29.401Z,5236
2018-04-12T07:05:10.034Z,4872
2018-04-12T07:05:50.530Z,4968
2018-04-12T07:06:31.262Z,4944
2018-04-12T07:07:12.333Z,5004
2018-04-12T07:07:52.815Z,5168
2018-04-12T07:08:33.742Z,5508
2018-04-12T07:09:14.348Z,5748
2018-04-12T07:09:54.876Z,5932
2018-04-12T07:12:28.565Z,6708
2018-04-12T07:13:09.002Z,6952
2018-04-12T07:13:49.519Z,7076
2018-04-12T07:14:30.162Z,7224
2018-04-12T07:15:10.609Z,7428
2018-04-12T07:15:51.116Z,7600
2018-04-12T07:16:31.646Z,7712
2018-04-12T07:17:12.158Z,7796
2018-04-12T07:17:52.674Z,7868
2018-04-12T07:18:33.200Z,7936
2018-04-12T07:19:13.798Z,7988
2018-04-12T07:19:54.257Z,8020
2018-04-12T07:20:34.768Z,8004
2018-04-12T07:21:15.331Z,7932
2018-04-12T07:21:55.853Z,7868
2018-04-12T07:22:36.367Z,7924
2018-04-12T07:23:16.886Z,7860
2018-04-12T07:23:57.484Z,7740
2018-04-12T07:24:37.992Z,7684
2018-04-12T07:25:18.513Z,7624
2018-04-12T07:25:59.070Z,7472
2018-04-12T07:26:39.598Z,7284
2018-04-12T07:27:20.116Z,6944
2018-04-12T07:28:00.654Z,6468
2018-04-12T07:28:41.171Z,6004
2018-04-12T07:29:21.686Z,5884
2018-04-12T07:30:02.199Z,5704
2018-04-12T07:30:42.712Z,5704
2018-04-12T07:31:23.240Z,5824
2018-04-12T07:32:03.757Z,5944
2018-04-12T07:32:44.263Z,5988
2018-04-12T07:33:24.808Z,5812
2018-04-12T07:34:05.315Z,5684
2018-04-12T07:34:45.842Z,5588
2018-04-12T07:35:26.363Z,5600
2018-04-12T07:36:07.763Z,5480
2018-04-12T07:36:48.280Z,5388
2018-04-12T07:37:28.812Z,5276
2018-04-12T07:38:09.377Z,5304
2018-04-12T07:38:49.865Z,5268
2018-04-12T07:39:30.904Z,4976
2018-04-12T07:40:11.414Z,4700
2018-04-12T07:40:51.931Z,4216
2018-04-12T07:41:32.457Z,4004
2018-04-12T07:42:12.977Z,3928
2018-04-12T07:42:53.494Z,4308
2018-04-12T07:43:34.021Z,4340
2018-04-12T07:44:14.543Z,4476
2018-04-12T07:44:55.062Z,4528
2018-04-12T07:45:35.568Z,4364
2018-04-12T07:46:16.095Z,4224
2018-04-12T07:46:56.608Z,4132
2018-04-12T07:47:37.143Z,4440
2018-04-12T07:48:17.816Z,4268
2018-04-12T07:48:58.198Z,4328
2018-04-12T07:49:38.710Z,4312
2018-04-12T07:50:19.238Z,4232
2018-04-12T07:50:59.750Z,4180
2018-04-12T07:51:40.337Z,3976
2018-04-12T07:52:20.749Z,3620
2018-04-12T07:53:01.263Z,3424
2018-04-12T07:53:41.781Z,3564
2018-04-12T07:54:22.312Z,3444
2018-04-12T07:55:02.870Z,3284
2018-04-12T07:55:43.408Z,2936
2018-04-12T07:56:23.940Z,2552
2018-04-12T07:57:04.472Z,2428
2018-04-12T07:57:44.995Z,2460
2018-04-12T07:58:25.509Z,2604
2018-04-12T07:59:06.023Z,2508
2018-04-12T07:59:46.560Z,2488
2018-04-12T08:00:27.084Z,2484
2018-04-12T08:01:07.609Z,2480
2018-04-12T08:01:48.133Z,2472
2018-04-12T08:02:28.675Z,2516
2018-04-12T08:03:09.146Z,2576
2018-04-12T08:03:49.656Z,2656
2018-04-12T08:04:30.173Z,2756
2018-04-12T08:05:10.719Z,2904
2018-04-12T08:05:51.249Z,3260
2018-04-12T08:06:31.774Z,3456
2018-04-12T08:07:12.300Z,3556
2018-04-12T08:07:52.832Z,3672
2018-04-12T08:08:33.370Z,3808
2018-04-12T08:09:13.922Z,4012
2018-04-12T08:09:54.450Z,4080
2018-04-12T08:10:34.989Z,4056
2018-04-12T08:11:15.512Z,4188
2018-04-12T08:11:56.020Z,4364
2018-04-12T08:12:36.541Z,4512
2018-04-12T08:13:17.059Z,4544
2018-04-12T08:13:58.326Z,4676
2018-04-12T08:14:38.826Z,4860
2018-04-12T08:15:19.337Z,4972
2018-04-12T08:15:59.847Z,5020
2018-04-12T08:16:40.444Z,5084
2018-04-12T08:17:20.931Z,5112
2018-04-12T08:18:01.565Z,5152
2018-04-12T08:18:42.071Z,5180
2018-04-12T08:19:22.599Z,5180
2018-04-12T08:20:03.119Z,5216
2018-04-12T08:20:43.653Z,5256
2018-04-12T08:21:24.202Z,5268
2018-04-12T08:22:04.754Z,5112
2018-04-12T08:22:45.274Z,5020
2018-04-12T08:23:25.827Z,4996
2018-04-12T08:24:06.415Z,4912
2018-04-12T08:24:46.974Z,4816
2018-04-12T08:25:27.499Z,4644
2018-04-12T08:26:08.017Z,4536
2018-04-12T08:26:48.547Z,4508
2018-04-12T08:27:29.039Z,4636
2018-04-12T08:28:09.892Z,4652
2018-04-12T08:28:50.413Z,4692
2018-04-12T08:29:30.933Z,4700
2018-04-12T08:30:11.465Z,4648
2018-04-12T08:30:51.995Z,4472
2018-04-12T08:31:32.539Z,4364
2018-04-12T08:32:13.059Z,4356
2018-04-12T08:32:53.577Z,4412
2018-04-12T08:33:34.118Z,4508
2018-04-12T08:34:14.635Z,4488
2018-04-12T08:34:55.155Z,4452
2018-04-12T08:35:35.704Z,4432
2018-04-12T08:36:16.289Z,4452
2018-04-12T08:36:56.772Z,4488
2018-04-12T08:37:37.311Z,4520
2018-04-12T08:38:17.876Z,4580
2018-04-12T08:38:58.384Z,4660
2018-04-12T08:39:38.909Z,4712
2018-04-12T08:40:19.433Z,4764
2018-04-12T08:40:59.958Z,4832
2018-04-12T08:41:40.478Z,4896
2018-04-12T08:42:21.038Z,4988
2018-04-12T08:43:02.355Z,5092
2018-04-12T08:43:42.945Z,5176
2018-04-12T08:44:23.475Z,5280
2018-04-12T08:45:05.025Z,5412
2018-04-12T08:45:45.578Z,5548
2018-04-12T08:46:26.110Z,5704
2018-04-12T08:47:06.655Z,5856
2018-04-12T08:47:47.429Z,6000
2018-04-12T08:48:27.632Z,6160
2018-04-12T08:49:08.150Z,6312
2018-04-12T08:49:48.584Z,6420
2018-04-12T08:50:29.084Z,6496
2018-04-12T08:51:09.658Z,6528
2018-04-12T08:51:50.177Z,6548
2018-04-12T08:52:30.670Z,6544
2018-04-12T08:53:11.131Z,6508
2018-04-12T08:53:51.628Z,6488
2018-04-12T08:54:32.186Z,6448
2018-04-12T08:55:12.852Z,6396
2018-04-12T08:55:53.328Z,6356
2018-04-12T08:56:33.802Z,6352
2018-04-12T08:57:14.271Z,6368
2018-04-12T08:57:54.730Z,6372
2018-04-12T08:58:35.250Z,6376
2018-04-12T08:59:15.757Z,6384
2018-04-12T08:59:56.195Z,6388
2018-04-12T09:00:36.745Z,6392
2018-04-12T09:01:17.190Z,6388
2018-04-12T09:01:58.318Z,6376
2018-04-12T09:02:38.854Z,6372
2018-04-12T09:03:19.363Z,6376
2018-04-12T09:03:59.892Z,6384
2018-04-12T09:04:40.335Z,6396
2018-04-12T09:05:20.839Z,6392
2018-04-12T09:06:01.436Z,6380
2018-04-12T09:06:41.900Z,6344
2018-04-12T09:07:22.404Z,6300
2018-04-12T09:08:03.038Z,6248
2018-04-12T09:08:43.353Z,6200
2018-04-12T09:09:23.859Z,6164
2018-04-12T09:10:04.382Z,6140
2018-04-12T09:10:44.901Z,6124
2018-04-12T09:11:25.350Z,6108
2018-04-12T09:12:05.855Z,6084
2018-04-12T09:12:46.422Z,6036
2018-04-12T09:13:27.004Z,5964
2018-04-12T09:14:07.468Z,5880
2018-04-12T09:14:47.927Z,5784
2018-04-12T09:15:28.435Z,5688
2018-04-12T09:16:08.948Z,5588
2018-04-12T09:16:49.392Z,5468
2018-04-12T09:17:29.856Z,5356
2018-04-12T09:18:10.396Z,5240
2018-04-12T09:18:50.870Z,5128
2018-04-12T09:19:31.340Z,5024
2018-04-12T09:20:11.867Z,4928
2018-04-12T09:20:52.364Z,4832
2018-04-12T09:21:32.830Z,4732
2018-04-12T09:22:13.384Z,4636
2018-04-12T09:22:53.791Z,4552
2018-04-12T09:23:34.313Z,4460
2018-04-12T09:24:14.817Z,4372
2018-04-12T09:24:55.282Z,4288
2018-04-12T09:25:35.737Z,4208
2018-04-12T09:26:16.289Z,4140
2018-04-12T09:26:56.690Z,4084
2018-04-12T09:27:37.247Z,4036
2018-04-12T09:28:17.725Z,4016
2018-04-12T09:28:58.263Z,4008
2018-04-12T09:29:38.789Z,4000
2018-04-12T09:30:19.302Z,3988
2018-04-12T09:30:59.787Z,3972
2018-04-12T09:31:40.510Z,3940
2018-04-12T09:32:21.017Z,3900
2018-04-12T09:33:01.501Z,3864
2018-04-12T09:33:42.084Z,3832
2018-04-12T09:34:22.579Z,3804
2018-04-12T09:35:02.990Z,3784
2018-04-12T09:35:43.558Z,3764
2018-04-12T09:36:24.036Z,3748
2018-04-12T09:37:04.505Z,3752
2018-04-12T09:37:45.242Z,3752
2018-04-12T09:38:25.749Z,3752
2018-04-12T09:39:06.343Z,3764
2018-04-12T09:39:46.813Z,3760
2018-04-12T09:40:27.361Z,3780
2018-04-12T09:41:07.840Z,3844